createdAt,value
2022-07-29T00:02:26.461Z,22.28
2022-07-29T00:04:53.487Z,22.22
2022-07-29T00:07:20.077Z,22.02
2022-07-29T00:09:51.965Z,21.99
2022-07-29T00:12:25.525Z,21.84
2022-07-29T00:14:54.990Z,21.96
2022-07-29T00:17:21.639Z,22.06
2022-07-29T00:19:48.083Z,21.90
2022-07-29T00:22:14.680Z,21.60
2022-07-29T00:24:41.108Z,21.54
2022-07-29T00:27:07.578Z,21.44
2022-07-29T00:29:35.103Z,21.41
2022-07-29T00:32:02.916Z,21.19
2022-07-29T00:34:47.786Z,21.18
2022-07-29T00:37:14.227Z,21.52
2022-07-29T00:39:40.720Z,21.57
2022-07-29T00:42:07.323Z,21.27
2022-07-29T00:44:38.259Z,21.26
2022-07-29T00:47:04.855Z,21.25
2022-07-29T00:49:31.498Z,21.24
2022-07-29T00:51:58.508Z,20.93
2022-07-29T00:54:25.077Z,20.80
2022-07-29T00:56:51.575Z,20.95
2022-07-29T00:59:18.092Z,20.37
2022-07-29T01:01:44.535Z,20.19
2022-07-29T01:04:11.010Z,19.29
2022-07-29T01:06:37.785Z,18.94
2022-07-29T01:09:04.610Z,19.26
2022-07-29T01:11:31.073Z,19.45
2022-07-29T01:13:57.843Z,19.62
2022-07-29T01:16:33.672Z,19.45
2022-07-29T01:19:14.091Z,19.73
2022-07-29T01:21:58.452Z,19.64
2022-07-29T01:24:49.458Z,19.52
2022-07-29T01:27:31.018Z,19.46
2022-07-29T01:30:00.769Z,19.48
2022-07-29T01:32:30.468Z,19.85
2022-07-29T01:35:03.317Z,19.25
2022-07-29T01:37:41.398Z,19.04
2022-07-29T01:40:20.010Z,19.32
2022-07-29T01:42:51.173Z,19.23
2022-07-29T01:45:35.717Z,19.23
2022-07-29T01:48:19.062Z,19.29
2022-07-29T01:50:50.385Z,19.08
2022-07-29T01:53:36.422Z,19.09
2022-07-29T01:56:07.636Z,18.86
2022-07-29T01:58:37.654Z,18.85
2022-07-29T02:01:05.701Z,18.65
2022-07-29T02:03:33.429Z,18.87
2022-07-29T02:06:02.609Z,18.60
2022-07-29T02:08:31.562Z,18.77
2022-07-29T02:10:59.613Z,18.72
2022-07-29T02:13:28.542Z,18.56
2022-07-29T02:15:58.198Z,18.48
2022-07-29T02:18:28.901Z,18.70
2022-07-29T02:20:57.806Z,18.54
2022-07-29T02:23:26.035Z,18.65
2022-07-29T02:25:57.830Z,18.70
2022-07-29T02:28:28.681Z,18.43
2022-07-29T02:30:58.851Z,18.25
2022-07-29T02:33:26.534Z,18.10
2022-07-29T02:35:53.575Z,18.05
2022-07-29T02:38:40.544Z,17.97
2022-07-29T02:41:12.385Z,18.10
2022-07-29T02:43:41.519Z,18.08
2022-07-29T02:46:28.372Z,18.00
2022-07-29T02:49:29.709Z,18.15
2022-07-29T02:52:01.115Z,18.04
2022-07-29T02:54:38.024Z,18.12
2022-07-29T02:57:11.844Z,17.83
2022-07-29T02:59:42.968Z,18.03
2022-07-29T03:02:11.141Z,18.11
2022-07-29T03:04:41.270Z,18.01
2022-07-29T03:07:07.925Z,18.05
2022-07-29T03:09:35.417Z,18.51
2022-07-29T03:12:04.943Z,18.34
2022-07-29T03:14:32.588Z,18.00
2022-07-29T03:16:59.751Z,17.64
2022-07-29T03:19:27.698Z,17.57
2022-07-29T03:21:58.070Z,17.63
2022-07-29T03:24:29.250Z,17.52
2022-07-29T03:26:57.383Z,17.68
2022-07-29T03:29:24.039Z,17.50
2022-07-29T03:31:51.334Z,17.59
2022-07-29T03:34:18.221Z,17.41
2022-07-29T03:36:44.971Z,17.25
2022-07-29T03:39:21.457Z,17.32
2022-07-29T03:41:50.698Z,17.28
2022-07-29T03:44:18.905Z,17.18
2022-07-29T03:46:49.514Z,17.25
2022-07-29T03:49:17.469Z,17.18
2022-07-29T03:51:44.040Z,17.30
2022-07-29T03:54:10.774Z,16.96
2022-07-29T03:56:41.534Z,16.97
2022-07-29T03:59:08.944Z,17.09
2022-07-29T04:01:36.343Z,16.88
2022-07-29T04:04:03.573Z,16.84
2022-07-29T04:06:30.111Z,16.81
2022-07-29T04:08:56.536Z,16.88
2022-07-29T04:11:23.119Z,16.96
2022-07-29T04:13:49.531Z,16.98
2022-07-29T04:16:16.042Z,17.04
2022-07-29T04:18:42.529Z,16.93
2022-07-29T04:21:08.981Z,16.95
2022-07-29T04:23:35.431Z,16.87
2022-07-29T04:26:14.044Z,17.05
2022-07-29T04:28:41.386Z,17.14
2022-07-29T04:31:07.893Z,17.20
2022-07-29T04:33:34.343Z,17.73
2022-07-29T04:36:00.789Z,17.34
2022-07-29T04:38:27.592Z,17.25
2022-07-29T04:40:54.252Z,17.36
2022-07-29T04:43:22.694Z,17.44
2022-07-29T04:45:50.252Z,17.45
2022-07-29T04:48:17.377Z,17.52
2022-07-29T04:50:45.159Z,17.69
2022-07-29T04:53:11.546Z,18.18
2022-07-29T04:55:38.854Z,19.05
2022-07-29T04:58:05.687Z,19.67
2022-07-29T05:00:33.306Z,20.09
2022-07-29T05:03:00.261Z,20.40
2022-07-29T05:05:26.751Z,20.73
2022-07-29T05:07:53.292Z,20.54
2022-07-29T05:10:19.763Z,21.13
2022-07-29T05:12:46.232Z,21.28
2022-07-29T05:15:12.682Z,21.63
2022-07-29T05:17:39.085Z,21.49
2022-07-29T05:20:06.871Z,21.71
2022-07-29T05:22:33.509Z,21.80
2022-07-29T05:25:00.405Z,21.92
2022-07-29T05:27:29.020Z,22.17
2022-07-29T05:29:55.486Z,22.67
2022-07-29T05:32:21.902Z,22.93
2022-07-29T05:34:51.014Z,22.37
2022-07-29T05:37:21.192Z,22.62
2022-07-29T05:39:48.570Z,22.66
2022-07-29T05:42:17.258Z,22.53
2022-07-29T05:44:43.773Z,22.74
2022-07-29T05:47:10.198Z,22.87
2022-07-29T05:49:36.651Z,22.80
2022-07-29T05:52:03.404Z,22.58
2022-07-29T05:54:29.846Z,22.73
2022-07-29T05:56:56.672Z,22.96
2022-07-29T05:59:27.046Z,22.90
2022-07-29T06:01:57.951Z,22.79
2022-07-29T06:04:24.629Z,22.93
2022-07-29T06:06:51.081Z,23.10
2022-07-29T06:09:17.483Z,23.46
2022-07-29T06:11:44.527Z,23.77
2022-07-29T06:14:11.018Z,23.75
2022-07-29T06:16:37.516Z,24.10
2022-07-29T06:19:05.110Z,23.69
2022-07-29T06:21:31.539Z,24.02
2022-07-29T06:23:57.945Z,23.87
2022-07-29T06:26:30.611Z,23.79
2022-07-29T06:28:58.416Z,23.81
2022-07-29T06:31:24.951Z,24.17
2022-07-29T06:33:51.467Z,24.02
2022-07-29T06:36:21.269Z,24.44
2022-07-29T06:38:51.403Z,24.37
2022-07-29T06:41:18.944Z,24.39
2022-07-29T06:43:52.524Z,24.17
2022-07-29T06:46:23.022Z,24.53
2022-07-29T06:48:50.659Z,24.37
2022-07-29T06:51:22.400Z,24.21
2022-07-29T06:53:58.133Z,24.42
2022-07-29T06:56:27.196Z,24.55
2022-07-29T06:58:53.742Z,24.49
2022-07-29T07:01:20.855Z,24.92
2022-07-29T07:03:48.284Z,24.95
2022-07-29T07:06:15.193Z,25.03
2022-07-29T07:08:42.011Z,24.22
2022-07-29T07:11:08.486Z,24.59
2022-07-29T07:13:36.699Z,24.37
2022-07-29T07:16:03.725Z,24.78
2022-07-29T07:18:30.405Z,24.68
2022-07-29T07:20:57.764Z,25.18
2022-07-29T07:23:24.322Z,25.26
2022-07-29T07:25:50.745Z,24.89
2022-07-29T07:28:17.247Z,24.92
2022-07-29T07:30:43.686Z,24.90
2022-07-29T07:33:10.233Z,25.09
2022-07-29T07:35:36.772Z,25.03
2022-07-29T07:38:03.330Z,25.32
2022-07-29T07:40:29.832Z,25.08
2022-07-29T07:42:56.278Z,25.53
2022-07-29T07:45:23.009Z,25.42
2022-07-29T07:47:49.430Z,25.38
2022-07-29T07:50:19.223Z,25.73
2022-07-29T07:52:53.953Z,25.32
2022-07-29T07:55:20.890Z,25.16
2022-07-29T07:57:47.976Z,25.56
2022-07-29T08:00:16.273Z,25.36
2022-07-29T08:02:43.864Z,25.64
2022-07-29T08:05:12.496Z,25.55
2022-07-29T08:07:39.366Z,25.88
2022-07-29T08:10:06.368Z,25.75
2022-07-29T08:12:32.901Z,26.12
2022-07-29T08:14:59.475Z,26.40
2022-07-29T08:17:26.208Z,26.75
2022-07-29T08:19:52.613Z,26.38
2022-07-29T08:22:19.124Z,26.49
2022-07-29T08:24:48.060Z,26.72
2022-07-29T08:27:33.827Z,25.93
2022-07-29T08:30:01.565Z,26.17
2022-07-29T08:32:52.126Z,25.78
2022-07-29T08:35:15.847Z,26.54
2022-07-29T08:37:42.901Z,26.77
2022-07-29T08:40:09.763Z,26.86
2022-07-29T08:42:36.513Z,26.92
2022-07-29T08:45:04.467Z,27.08
2022-07-29T08:47:31.233Z,27.71
2022-07-29T08:49:57.680Z,27.93
2022-07-29T08:52:26.829Z,27.79
2022-07-29T08:54:54.125Z,27.71
2022-07-29T08:57:22.894Z,27.63
2022-07-29T08:59:53.348Z,27.27
2022-07-29T09:02:22.630Z,28.27
2022-07-29T09:04:50.337Z,28.22
2022-07-29T09:07:18.503Z,27.58
2022-07-29T09:09:45.199Z,27.73
2022-07-29T09:12:29.592Z,27.19
2022-07-29T09:14:56.938Z,26.99
2022-07-29T09:17:42.615Z,27.11
2022-07-29T09:20:11.562Z,27.22
2022-07-29T09:22:41.902Z,27.34
2022-07-29T09:25:09.474Z,27.58
2022-07-29T09:27:36.545Z,27.38
2022-07-29T09:30:15.125Z,27.52
2022-07-29T09:32:59.194Z,27.43
2022-07-29T09:35:27.078Z,27.33
2022-07-29T09:37:53.837Z,27.78
2022-07-29T09:40:22.597Z,27.51
2022-07-29T09:42:49.925Z,27.41
2022-07-29T09:45:32.579Z,27.93
2022-07-29T09:48:04.230Z,28.18
2022-07-29T09:50:41.187Z,27.97
2022-07-29T09:53:07.733Z,27.95
2022-07-29T09:55:46.496Z,27.28
2022-07-29T09:58:20.082Z,27.82
2022-07-29T10:00:47.752Z,27.65
2022-07-29T10:03:16.588Z,28.49
2022-07-29T10:05:44.263Z,28.21
2022-07-29T10:08:13.183Z,28.92
2022-07-29T10:10:42.593Z,29.01
2022-07-29T10:13:15.695Z,29.00
2022-07-29T10:15:46.087Z,28.65
2022-07-29T10:18:14.424Z,28.12
2022-07-29T10:20:41.880Z,28.25
2022-07-29T10:23:09.507Z,28.48
2022-07-29T10:25:35.898Z,28.10
2022-07-29T10:28:02.311Z,28.94
2022-07-29T10:30:28.798Z,28.24
2022-07-29T10:33:40.101Z,28.49
2022-07-29T10:36:36.908Z,28.41
2022-07-29T10:39:23.259Z,28.42
2022-07-29T10:42:03.676Z,28.35
2022-07-29T10:44:30.936Z,28.32
2022-07-29T10:46:58.527Z,27.94
2022-07-29T10:49:30.403Z,28.14
2022-07-29T10:52:08.915Z,27.92
2022-07-29T10:54:42.358Z,28.21
2022-07-29T10:57:13.710Z,28.55
2022-07-29T10:59:42.962Z,28.58
2022-07-29T11:02:46.829Z,29.41
2022-07-29T11:05:19.584Z,29.81
2022-07-29T11:08:16.204Z,29.40
2022-07-29T11:10:47.955Z,29.92
2022-07-29T11:13:44.063Z,29.71
2022-07-29T11:16:10.735Z,29.79
2022-07-29T11:18:57.804Z,29.81
2022-07-29T11:21:53.931Z,29.58
2022-07-29T11:27:23.174Z,30.45
2022-07-29T11:29:58.448Z,30.49
2022-07-29T11:32:29.542Z,29.68
2022-07-29T11:35:17.292Z,30.35
2022-07-29T11:37:52.290Z,30.37
2022-07-29T11:40:22.914Z,30.86
2022-07-29T11:42:51.906Z,30.66
2022-07-29T11:45:44.362Z,30.63
2022-07-29T11:48:29.715Z,30.13
2022-07-29T11:50:59.578Z,30.22
2022-07-29T11:53:29.210Z,30.47
2022-07-29T11:56:00.656Z,30.64
2022-07-29T11:58:29.270Z,30.49
2022-07-29T12:03:43.612Z,30.54
2022-07-29T12:06:17.978Z,30.42
2022-07-29T12:08:45.328Z,30.68
2022-07-29T12:11:20.528Z,30.60
2022-07-29T12:13:49.331Z,30.22
2022-07-29T12:16:16.731Z,31.02
2022-07-29T12:18:59.396Z,30.60
2022-07-29T12:21:26.647Z,30.76
2022-07-29T12:23:57.735Z,31.09
2022-07-29T12:26:28.580Z,31.28
2022-07-29T12:28:55.553Z,31.14
2022-07-29T12:31:42.901Z,31.60
2022-07-29T12:34:10.373Z,31.76
2022-07-29T12:36:37.253Z,31.05
2022-07-29T12:39:05.478Z,31.30
2022-07-29T12:41:32.548Z,31.70
2022-07-29T12:43:59.076Z,31.54
2022-07-29T12:46:25.504Z,31.91
2022-07-29T12:48:55.680Z,31.42
2022-07-29T12:51:37.457Z,30.78
2022-07-29T12:54:16.705Z,31.11
2022-07-29T12:56:45.534Z,31.12
2022-07-29T12:59:20.126Z,31.38
2022-07-29T13:01:50.042Z,31.28
2022-07-29T13:04:30.880Z,31.29
2022-07-29T13:07:54.073Z,31.59
2022-07-29T13:10:15.824Z,31.15
2022-07-29T13:13:04.281Z,31.31
2022-07-29T13:15:31.190Z,31.56
2022-07-29T13:17:57.631Z,31.08
2022-07-29T13:20:32.056Z,31.26
2022-07-29T13:23:00.850Z,31.06
2022-07-29T13:25:32.919Z,30.80
2022-07-29T13:28:00.463Z,30.13
2022-07-29T13:30:26.993Z,30.46
2022-07-29T13:32:53.844Z,30.76
2022-07-29T13:35:21.260Z,30.48
2022-07-29T13:37:48.024Z,30.53
2022-07-29T13:40:15.013Z,30.45
2022-07-29T13:42:41.939Z,30.26
2022-07-29T13:45:09.499Z,30.14
2022-07-29T13:47:35.916Z,30.47
2022-07-29T13:50:02.624Z,30.47
2022-07-29T13:52:29.682Z,30.33
2022-07-29T13:54:56.576Z,30.83
2022-07-29T13:57:22.993Z,30.80
2022-07-29T13:59:53.931Z,30.95
2022-07-29T14:02:21.327Z,31.26
2022-07-29T14:04:52.127Z,31.00
2022-07-29T14:07:18.611Z,30.86
2022-07-29T14:09:45.111Z,30.37
2022-07-29T14:12:12.238Z,30.20
2022-07-29T14:14:38.918Z,30.66
2022-07-29T14:17:07.388Z,30.73
2022-07-29T14:19:36.650Z,30.72
2022-07-29T14:22:05.235Z,30.45
2022-07-29T14:24:32.174Z,30.41
2022-07-29T14:26:59.991Z,30.38
2022-07-29T14:29:37.550Z,30.32
2022-07-29T14:32:08.541Z,30.31
2022-07-29T14:34:36.458Z,30.29
2022-07-29T14:37:06.031Z,30.36
2022-07-29T14:39:32.933Z,30.72
2022-07-29T14:42:00.345Z,30.44
2022-07-29T14:44:31.947Z,30.61
2022-07-29T14:47:00.478Z,30.42
2022-07-29T14:49:27.928Z,30.78
2022-07-29T14:51:54.486Z,30.69
2022-07-29T14:54:20.899Z,30.53
2022-07-29T14:56:47.699Z,30.74
2022-07-29T14:59:14.513Z,30.67
2022-07-29T15:01:41.023Z,30.45
2022-07-29T15:04:07.549Z,30.40
2022-07-29T15:06:34.925Z,30.53
2022-07-29T15:09:01.413Z,30.86
2022-07-29T15:11:27.832Z,30.94
2022-07-29T15:13:54.342Z,31.15
2022-07-29T15:16:21.676Z,30.88
2022-07-29T15:18:48.114Z,30.67
2022-07-29T15:21:14.728Z,30.22
2022-07-29T15:23:41.183Z,30.38
2022-07-29T15:26:07.739Z,30.90
2022-07-29T15:28:34.198Z,30.20
2022-07-29T15:31:00.619Z,30.06
2022-07-29T15:33:27.567Z,29.78
2022-07-29T15:35:54.116Z,29.85
2022-07-29T15:38:20.615Z,30.11
2022-07-29T15:40:55.702Z,29.67
2022-07-29T15:43:22.862Z,29.56
2022-07-29T15:46:08.566Z,28.63
2022-07-29T15:48:39.246Z,28.41
2022-07-29T15:51:05.742Z,28.37
2022-07-29T15:53:32.142Z,28.47
2022-07-29T15:55:59.559Z,28.29
2022-07-29T15:58:26.004Z,28.16
2022-07-29T16:00:52.428Z,28.23
2022-07-29T16:03:19.547Z,28.25
2022-07-29T16:05:46.121Z,28.26
2022-07-29T16:08:12.589Z,28.31
2022-07-29T16:10:39.085Z,28.47
2022-07-29T16:13:05.593Z,28.45
2022-07-29T16:15:32.225Z,28.21
2022-07-29T16:17:58.694Z,27.91
2022-07-29T16:20:25.363Z,27.89
2022-07-29T16:22:51.800Z,27.88
2022-07-29T16:25:18.314Z,27.70
2022-07-29T16:27:44.745Z,27.71
2022-07-29T16:30:11.549Z,27.74
2022-07-29T16:32:38.197Z,27.73
2022-07-29T16:35:05.339Z,27.62
2022-07-29T16:37:33.667Z,27.62
2022-07-29T16:40:00.225Z,27.50
2022-07-29T16:42:45.369Z,26.81
2022-07-29T16:45:12.882Z,26.06
2022-07-29T16:47:39.339Z,26.07
2022-07-29T16:50:06.255Z,25.63
2022-07-29T16:52:32.728Z,25.52
2022-07-29T16:54:59.226Z,25.21
2022-07-29T16:57:25.709Z,24.63
2022-07-29T16:59:52.308Z,23.91
2022-07-29T17:02:18.916Z,23.96
2022-07-29T17:04:45.418Z,23.85
2022-07-29T17:07:11.858Z,23.59
2022-07-29T17:09:38.347Z,23.42
2022-07-29T17:12:05.169Z,23.58
2022-07-29T17:14:31.679Z,23.41
2022-07-29T17:17:02.184Z,23.79
2022-07-29T17:19:30.705Z,23.63
2022-07-29T17:22:06.458Z,23.77
2022-07-29T17:24:36.874Z,24.04
2022-07-29T17:27:04.798Z,23.86
2022-07-29T17:29:31.468Z,23.72
2022-07-29T17:31:59.432Z,23.68
2022-07-29T17:34:25.966Z,23.49
2022-07-29T17:36:52.454Z,23.60
2022-07-29T17:39:19.024Z,23.70
2022-07-29T17:41:46.766Z,23.59
2022-07-29T17:44:13.486Z,23.46
2022-07-29T17:46:40.516Z,23.38
2022-07-29T17:49:07.326Z,23.33
2022-07-29T17:51:33.924Z,23.30
2022-07-29T17:54:00.369Z,23.23
2022-07-29T17:56:26.886Z,23.17
2022-07-29T17:58:53.408Z,23.24
2022-07-29T18:01:19.964Z,23.22
2022-07-29T18:03:46.979Z,23.26
2022-07-29T18:06:13.510Z,23.26
2022-07-29T18:08:40.106Z,23.40
2022-07-29T18:11:06.825Z,23.31
2022-07-29T18:13:33.394Z,23.15
2022-07-29T18:16:00.620Z,23.11
2022-07-29T18:18:27.612Z,23.10
2022-07-29T18:20:54.188Z,23.19
2022-07-29T18:23:21.172Z,23.07
2022-07-29T18:25:47.650Z,23.10
2022-07-29T18:28:14.104Z,23.23
2022-07-29T18:30:40.570Z,22.93
2022-07-29T18:33:21.763Z,23.05
2022-07-29T18:35:50.376Z,22.95
2022-07-29T18:38:17.036Z,23.06
2022-07-29T18:40:45.421Z,23.18
2022-07-29T18:43:12.903Z,23.13
2022-07-29T18:45:39.647Z,23.24
2022-07-29T18:48:08.402Z,23.36
2022-07-29T18:50:39.686Z,23.68
2022-07-29T18:53:06.109Z,23.84
2022-07-29T18:55:32.705Z,23.99
2022-07-29T18:57:59.353Z,24.19
2022-07-29T19:00:26.331Z,24.17
2022-07-29T19:02:53.199Z,24.03
2022-07-29T19:05:19.989Z,24.04
2022-07-29T19:07:46.433Z,24.18
2022-07-29T19:10:13.478Z,24.20
2022-07-29T19:12:39.978Z,24.20
2022-07-29T19:15:07.751Z,23.67
2022-07-29T19:17:34.184Z,23.93
2022-07-29T19:20:00.625Z,23.84
2022-07-29T19:22:27.027Z,23.91
2022-07-29T19:24:53.510Z,23.54
2022-07-29T19:27:19.976Z,23.45
2022-07-29T19:29:46.385Z,23.46
2022-07-29T19:32:13.639Z,23.40
2022-07-29T19:35:10.204Z,23.23
2022-07-29T19:37:37.312Z,23.22
2022-07-29T19:40:04.969Z,23.11
2022-07-29T19:42:31.363Z,23.12
2022-07-29T19:44:57.813Z,23.28
2022-07-29T19:47:24.251Z,23.15
2022-07-29T19:49:50.639Z,23.25
2022-07-29T19:52:17.130Z,23.14
2022-07-29T19:54:43.564Z,23.09
2022-07-29T19:57:10.080Z,22.95
2022-07-29T19:59:36.533Z,23.20
2022-07-29T20:02:03.216Z,23.22
2022-07-29T20:04:29.773Z,23.38
2022-07-29T20:07:01.204Z,23.28
2022-07-29T20:09:28.416Z,23.24
2022-07-29T20:11:55.041Z,23.24
2022-07-29T20:14:21.830Z,23.14
2022-07-29T20:16:48.825Z,23.17
2022-07-29T20:19:15.301Z,23.14
2022-07-29T20:21:41.870Z,23.09
2022-07-29T20:24:10.264Z,23.15
2022-07-29T20:26:36.719Z,22.93
2022-07-29T20:29:05.129Z,22.79
2022-07-29T20:31:32.378Z,22.47
2022-07-29T20:33:59.985Z,22.30
2022-07-29T20:36:26.872Z,22.27
2022-07-29T20:38:53.478Z,22.34
2022-07-29T20:41:19.891Z,22.32
2022-07-29T20:43:49.632Z,22.15
2022-07-29T20:46:16.125Z,22.14
2022-07-29T20:48:42.839Z,22.05
2022-07-29T20:51:09.388Z,21.89
2022-07-29T20:53:38.183Z,21.91
2022-07-29T20:56:04.981Z,21.80
2022-07-29T20:58:32.634Z,21.60
2022-07-29T21:00:59.077Z,21.50
2022-07-29T21:03:26.621Z,21.48
2022-07-29T21:05:53.173Z,21.04
2022-07-29T21:08:19.605Z,21.06
2022-07-29T21:10:46.012Z,21.38
2022-07-29T21:13:13.984Z,20.96
2022-07-29T21:15:42.286Z,21.33
2022-07-29T21:18:26.546Z,21.64
2022-07-29T21:21:00.752Z,21.54
2022-07-29T21:23:27.700Z,21.48
2022-07-29T21:25:54.494Z,21.66
2022-07-29T21:28:26.638Z,21.61
2022-07-29T21:31:05.433Z,21.68
2022-07-29T21:33:33.410Z,21.52
2022-07-29T21:38:48.278Z,21.79
2022-07-29T21:41:15.377Z,21.82
2022-07-29T21:43:42.438Z,21.86
2022-07-29T21:46:09.320Z,22.00
2022-07-29T21:48:36.120Z,21.93
2022-07-29T21:51:02.619Z,21.79
2022-07-29T21:53:29.084Z,21.73
2022-07-29T21:55:57.619Z,22.01
2022-07-29T21:58:24.559Z,21.92
2022-07-29T22:00:51.497Z,22.04
2022-07-29T22:03:18.013Z,21.69
2022-07-29T22:05:44.624Z,21.71
2022-07-29T22:08:11.161Z,21.74
2022-07-29T22:10:37.799Z,21.74
2022-07-29T22:13:04.288Z,21.87
2022-07-29T22:15:31.319Z,21.96
2022-07-29T22:17:58.411Z,22.08
2022-07-29T22:20:25.577Z,22.08
2022-07-29T22:22:52.254Z,22.20
2022-07-29T22:25:19.087Z,22.02
2022-07-29T22:27:45.840Z,22.00
2022-07-29T22:30:12.833Z,22.06
2022-07-29T22:32:39.715Z,21.96
2022-07-29T22:35:06.951Z,21.92
2022-07-29T22:37:33.587Z,22.16
2022-07-29T22:40:00.034Z,21.91
2022-07-29T22:42:26.515Z,21.82
2022-07-29T22:44:53.234Z,21.67
2022-07-29T22:47:45.683Z,21.66
2022-07-29T22:50:06.455Z,21.62
2022-07-29T22:52:32.840Z,21.48
2022-07-29T22:54:59.307Z,21.52
2022-07-29T22:57:25.931Z,21.71
2022-07-29T22:59:52.314Z,21.74
2022-07-29T23:02:19.075Z,21.47
2022-07-29T23:04:45.499Z,21.43
2022-07-29T23:07:11.957Z,21.34
2022-07-29T23:09:38.457Z,21.09
2022-07-29T23:12:05.112Z,20.98
2022-07-29T23:14:31.519Z,21.06
2022-07-29T23:16:58.726Z,21.08
2022-07-29T23:19:25.340Z,20.72
2022-07-29T23:21:51.807Z,20.80
2022-07-29T23:24:18.435Z,20.57
2022-07-29T23:26:44.959Z,20.36
2022-07-29T23:29:11.531Z,20.57
2022-07-29T23:31:41.745Z,20.51
2022-07-29T23:34:09.099Z,20.55
2022-07-29T23:36:35.554Z,20.43
2022-07-29T23:39:01.985Z,20.38
2022-07-29T23:41:31.808Z,20.37
2022-07-29T23:43:58.373Z,20.31
2022-07-29T23:46:24.925Z,20.44
2022-07-29T23:48:51.485Z,20.15
2022-07-29T23:51:18.070Z,20.10
2022-07-29T23:53:53.846Z,20.25
2022-07-29T23:56:20.829Z,19.93
2022-07-29T23:58:47.264Z,19.82
